sensor_id;sensor_type;location;lat;lon;timestamp;P1;durP1;ratioP1;P2;durP2;ratioP2
32200;SDS011;18701;45.588;5.288;2023-03-20T00:00:45;1.73;;;0.63;;
32200;SDS011;18701;45.588;5.288;2023-03-20T00:03:12;4.05;;;0.68;;
32200;SDS011;18701;45.588;5.288;2023-03-20T00:05:38;3.17;;;0.55;;
32200;SDS011;18701;45.588;5.288;2023-03-20T00:08:05;1.85;;;0.65;;
32200;SDS011;18701;45.588;5.288;2023-03-20T00:10:33;3.40;;;0.65;;
32200;SDS011;18701;45.588;5.288;2023-03-20T00:13:01;1.42;;;0.60;;
32200;SDS011;18701;45.588;5.288;2023-03-20T00:15:29;2.30;;;1.00;;
32200;SDS011;18701;45.588;5.288;2023-03-20T00:17:58;4.18;;;1.15;;
32200;SDS011;18701;45.588;5.288;2023-03-20T00:20:24;2.17;;;0.95;;
32200;SDS011;18701;45.588;5.288;2023-03-20T00:22:50;2.53;;;1.23;;
32200;SDS011;18701;45.588;5.288;2023-03-20T00:25:18;2.25;;;1.20;;
32200;SDS011;18701;45.588;5.288;2023-03-20T00:27:48;3.65;;;1.40;;
32200;SDS011;18701;45.588;5.288;2023-03-20T00:30:15;2.38;;;1.40;;
32200;SDS011;18701;45.588;5.288;2023-03-20T00:32:45;4.65;;;1.25;;
32200;SDS011;18701;45.588;5.288;2023-03-20T00:35:29;10.70;;;1.40;;
32200;SDS011;18701;45.588;5.288;2023-03-20T00:40:23;3.15;;;0.98;;
32200;SDS011;18701;45.588;5.288;2023-03-20T00:42:55;2.15;;;0.80;;
32200;SDS011;18701;45.588;5.288;2023-03-20T00:45:24;1.50;;;0.80;;
32200;SDS011;18701;45.588;5.288;2023-03-20T00:47:51;1.58;;;0.68;;
32200;SDS011;18701;45.588;5.288;2023-03-20T00:50:24;3.40;;;1.00;;
32200;SDS011;18701;45.588;5.288;2023-03-20T00:52:53;3.55;;;1.30;;
32200;SDS011;18701;45.588;5.288;2023-03-20T00:55:21;1.88;;;1.10;;
32200;SDS011;18701;45.588;5.288;2023-03-20T00:58:02;3.40;;;1.60;;
32200;SDS011;18701;45.588;5.288;2023-03-20T01:03:25;4.47;;;1.30;;
32200;SDS011;18701;45.588;5.288;2023-03-20T01:05:51;2.08;;;1.13;;
32200;SDS011;18701;45.588;5.288;2023-03-20T01:08:22;2.05;;;1.45;;
32200;SDS011;18701;45.588;5.288;2023-03-20T01:10:50;4.35;;;1.25;;
32200;SDS011;18701;45.588;5.288;2023-03-20T01:13:25;3.28;;;1.65;;
32200;SDS011;18701;45.588;5.288;2023-03-20T01:15:54;2.35;;;1.63;;
32200;SDS011;18701;45.588;5.288;2023-03-20T01:18:22;1.85;;;1.13;;
32200;SDS011;18701;45.588;5.288;2023-03-20T01:20:49;2.22;;;1.48;;
32200;SDS011;18701;45.588;5.288;2023-03-20T01:23:17;3.28;;;1.40;;
32200;SDS011;18701;45.588;5.288;2023-03-20T01:25:44;4.85;;;1.67;;
32200;SDS011;18701;45.588;5.288;2023-03-20T01:28:12;3.05;;;1.52;;
32200;SDS011;18701;45.588;5.288;2023-03-20T01:30:40;3.42;;;1.15;;
32200;SDS011;18701;45.588;5.288;2023-03-20T01:33:11;3.88;;;1.73;;
32200;SDS011;18701;45.588;5.288;2023-03-20T01:35:38;4.93;;;1.77;;
32200;SDS011;18701;45.588;5.288;2023-03-20T01:38:08;3.53;;;1.80;;
32200;SDS011;18701;45.588;5.288;2023-03-20T01:40:39;3.50;;;1.40;;
32200;SDS011;18701;45.588;5.288;2023-03-20T01:43:12;2.33;;;1.50;;
32200;SDS011;18701;45.588;5.288;2023-03-20T01:45:43;3.47;;;1.38;;
32200;SDS011;18701;45.588;5.288;2023-03-20T01:48:17;2.92;;;1.42;;
32200;SDS011;18701;45.588;5.288;2023-03-20T01:50:43;3.40;;;1.60;;
32200;SDS011;18701;45.588;5.288;2023-03-20T01:53:10;3.92;;;1.73;;
32200;SDS011;18701;45.588;5.288;2023-03-20T01:55:42;6.43;;;1.77;;
32200;SDS011;18701;45.588;5.288;2023-03-20T01:58:15;6.65;;;1.55;;
32200;SDS011;18701;45.588;5.288;2023-03-20T02:00:43;2.28;;;1.17;;
32200;SDS011;18701;45.588;5.288;2023-03-20T02:03:12;3.90;;;1.95;;
32200;SDS011;18701;45.588;5.288;2023-03-20T02:05:38;3.83;;;1.60;;
32200;SDS011;18701;45.588;5.288;2023-03-20T02:10:56;3.65;;;1.83;;
32200;SDS011;18701;45.588;5.288;2023-03-20T02:13:28;3.13;;;2.00;;
32200;SDS011;18701;45.588;5.288;2023-03-20T02:16:05;6.25;;;1.90;;
32200;SDS011;18701;45.588;5.288;2023-03-20T02:18:34;3.05;;;1.77;;
32200;SDS011;18701;45.588;5.288;2023-03-20T02:35:23;2.33;;;1.35;;
32200;SDS011;18701;45.588;5.288;2023-03-20T02:43:51;1.73;;;1.45;;
32200;SDS011;18701;45.588;5.288;2023-03-20T02:46:43;8.23;;;1.50;;
32200;SDS011;18701;45.588;5.288;2023-03-20T02:54:52;5.28;;;4.18;;
32200;SDS011;18701;45.588;5.288;2023-03-20T03:00:27;3.05;;;1.65;;
32200;SDS011;18701;45.588;5.288;2023-03-20T03:03:04;4.03;;;1.90;;
32200;SDS011;18701;45.588;5.288;2023-03-20T03:06:22;3.30;;;2.28;;
32200;SDS011;18701;45.588;5.288;2023-03-20T03:08:24;3.42;;;1.65;;
32200;SDS011;18701;45.588;5.288;2023-03-20T03:10:59;3.40;;;1.90;;
32200;SDS011;18701;45.588;5.288;2023-03-20T03:13:33;3.33;;;1.98;;
32200;SDS011;18701;45.588;5.288;2023-03-20T03:16:21;3.63;;;2.17;;
32200;SDS011;18701;45.588;5.288;2023-03-20T03:18:52;3.10;;;2.33;;
32200;SDS011;18701;45.588;5.288;2023-03-20T03:21:29;5.63;;;2.45;;
32200;SDS011;18701;45.588;5.288;2023-03-20T03:23:56;4.85;;;2.83;;
32200;SDS011;18701;45.588;5.288;2023-03-20T03:26:25;5.78;;;3.58;;
32200;SDS011;18701;45.588;5.288;2023-03-20T03:29:06;6.17;;;3.10;;
32200;SDS011;18701;45.588;5.288;2023-03-20T03:31:39;3.70;;;2.35;;
32200;SDS011;18701;45.588;5.288;2023-03-20T03:34:07;4.22;;;2.10;;
32200;SDS011;18701;45.588;5.288;2023-03-20T03:36:42;3.65;;;2.13;;
32200;SDS011;18701;45.588;5.288;2023-03-20T03:47:15;5.63;;;3.00;;
32200;SDS011;18701;45.588;5.288;2023-03-20T03:49:48;4.60;;;2.45;;
32200;SDS011;18701;45.588;5.288;2023-03-20T03:52:19;5.28;;;3.58;;
32200;SDS011;18701;45.588;5.288;2023-03-20T03:54:48;7.40;;;2.85;;
32200;SDS011;18701;45.588;5.288;2023-03-20T03:57:27;3.22;;;2.17;;
32200;SDS011;18701;45.588;5.288;2023-03-20T04:00:06;3.05;;;1.65;;
32200;SDS011;18701;45.588;5.288;2023-03-20T04:02:36;2.58;;;1.67;;
32200;SDS011;18701;45.588;5.288;2023-03-20T04:05:02;3.75;;;1.80;;
32200;SDS011;18701;45.588;5.288;2023-03-20T04:07:31;2.85;;;1.17;;
32200;SDS011;18701;45.588;5.288;2023-03-20T04:09:57;4.63;;;1.90;;
32200;SDS011;18701;45.588;5.288;2023-03-20T04:15:04;5.00;;;1.40;;
32200;SDS011;18701;45.588;5.288;2023-03-20T04:17:30;5.63;;;1.70;;
32200;SDS011;18701;45.588;5.288;2023-03-20T04:19:56;5.10;;;1.42;;
32200;SDS011;18701;45.588;5.288;2023-03-20T04:22:22;2.80;;;1.17;;
32200;SDS011;18701;45.588;5.288;2023-03-20T04:24:48;4.82;;;1.10;;
32200;SDS011;18701;45.588;5.288;2023-03-20T04:27:14;5.13;;;1.08;;
32200;SDS011;18701;45.588;5.288;2023-03-20T04:29:40;3.22;;;1.20;;
32200;SDS011;18701;45.588;5.288;2023-03-20T04:32:07;2.63;;;1.20;;
32200;SDS011;18701;45.588;5.288;2023-03-20T04:34:32;1.55;;;0.60;;
32200;SDS011;18701;45.588;5.288;2023-03-20T04:36:58;8.27;;;1.20;;
32200;SDS011;18701;45.588;5.288;2023-03-20T04:39:25;5.18;;;1.55;;
32200;SDS011;18701;45.588;5.288;2023-03-20T04:41:51;1.85;;;1.10;;
32200;SDS011;18701;45.588;5.288;2023-03-20T04:44:16;2.28;;;1.10;;
32200;SDS011;18701;45.588;5.288;2023-03-20T04:46:42;3.42;;;0.70;;
32200;SDS011;18701;45.588;5.288;2023-03-20T04:49:08;4.20;;;2.20;;
32200;SDS011;18701;45.588;5.288;2023-03-20T04:51:33;4.18;;;1.58;;
32200;SDS011;18701;45.588;5.288;2023-03-20T04:53:59;5.40;;;2.00;;
32200;SDS011;18701;45.588;5.288;2023-03-20T04:56:25;2.70;;;1.40;;
32200;SDS011;18701;45.588;5.288;2023-03-20T04:58:50;2.40;;;1.33;;
32200;SDS011;18701;45.588;5.288;2023-03-20T05:01:16;6.47;;;1.00;;
32200;SDS011;18701;45.588;5.288;2023-03-20T05:03:42;2.53;;;0.95;;
32200;SDS011;18701;45.588;5.288;2023-03-20T05:06:07;4.38;;;1.00;;
32200;SDS011;18701;45.588;5.288;2023-03-20T05:08:33;2.95;;;0.90;;
32200;SDS011;18701;45.588;5.288;2023-03-20T05:10:59;2.45;;;1.00;;
32200;SDS011;18701;45.588;5.288;2023-03-20T05:13:25;3.13;;;0.93;;
32200;SDS011;18701;45.588;5.288;2023-03-20T05:15:50;8.30;;;2.25;;
32200;SDS011;18701;45.588;5.288;2023-03-20T05:18:16;6.22;;;1.63;;
32200;SDS011;18701;45.588;5.288;2023-03-20T05:20:41;3.47;;;1.42;;
32200;SDS011;18701;45.588;5.288;2023-03-20T05:23:07;3.83;;;1.45;;
32200;SDS011;18701;45.588;5.288;2023-03-20T05:25:33;3.92;;;1.98;;
32200;SDS011;18701;45.588;5.288;2023-03-20T05:27:58;1.73;;;0.73;;
32200;SDS011;18701;45.588;5.288;2023-03-20T05:30:24;3.95;;;1.05;;
32200;SDS011;18701;45.588;5.288;2023-03-20T05:32:50;1.85;;;0.90;;
32200;SDS011;18701;45.588;5.288;2023-03-20T05:35:16;2.53;;;0.90;;
32200;SDS011;18701;45.588;5.288;2023-03-20T05:37:42;3.85;;;0.82;;
32200;SDS011;18701;45.588;5.288;2023-03-20T05:40:09;3.88;;;1.20;;
32200;SDS011;18701;45.588;5.288;2023-03-20T05:42:40;2.97;;;1.48;;
32200;SDS011;18701;45.588;5.288;2023-03-20T05:45:06;4.80;;;1.58;;
32200;SDS011;18701;45.588;5.288;2023-03-20T05:47:32;3.28;;;1.60;;
32200;SDS011;18701;45.588;5.288;2023-03-20T05:49:58;2.78;;;1.58;;
32200;SDS011;18701;45.588;5.288;2023-03-20T05:52:24;3.15;;;1.50;;
32200;SDS011;18701;45.588;5.288;2023-03-20T05:54:50;2.40;;;1.50;;
32200;SDS011;18701;45.588;5.288;2023-03-20T05:57:16;5.13;;;1.95;;
32200;SDS011;18701;45.588;5.288;2023-03-20T05:59:42;4.55;;;2.10;;
32200;SDS011;18701;45.588;5.288;2023-03-20T06:02:08;4.68;;;2.70;;
32200;SDS011;18701;45.588;5.288;2023-03-20T06:04:34;8.15;;;3.25;;
32200;SDS011;18701;45.588;5.288;2023-03-20T06:07:01;8.57;;;2.95;;
32200;SDS011;18701;45.588;5.288;2023-03-20T06:09:27;5.00;;;2.70;;
32200;SDS011;18701;45.588;5.288;2023-03-20T06:11:53;4.03;;;2.47;;
32200;SDS011;18701;45.588;5.288;2023-03-20T06:14:19;6.05;;;3.05;;
32200;SDS011;18701;45.588;5.288;2023-03-20T06:16:44;7.22;;;2.83;;
32200;SDS011;18701;45.588;5.288;2023-03-20T06:19:10;3.83;;;2.35;;
32200;SDS011;18701;45.588;5.288;2023-03-20T06:21:36;3.90;;;2.35;;
32200;SDS011;18701;45.588;5.288;2023-03-20T06:24:02;6.82;;;2.83;;
32200;SDS011;18701;45.588;5.288;2023-03-20T06:26:28;5.38;;;2.83;;
32200;SDS011;18701;45.588;5.288;2023-03-20T06:28:53;3.33;;;1.70;;
32200;SDS011;18701;45.588;5.288;2023-03-20T06:31:19;2.33;;;1.20;;
32200;SDS011;18701;45.588;5.288;2023-03-20T06:33:45;6.55;;;1.50;;
32200;SDS011;18701;45.588;5.288;2023-03-20T06:36:11;3.25;;;0.80;;
32200;SDS011;18701;45.588;5.288;2023-03-20T06:38:37;4.72;;;1.10;;
32200;SDS011;18701;45.588;5.288;2023-03-20T06:41:03;2.95;;;0.88;;
32200;SDS011;18701;45.588;5.288;2023-03-20T06:43:28;2.75;;;0.88;;
32200;SDS011;18701;45.588;5.288;2023-03-20T06:45:54;3.65;;;0.88;;
32200;SDS011;18701;45.588;5.288;2023-03-20T06:48:20;3.00;;;1.33;;
32200;SDS011;18701;45.588;5.288;2023-03-20T06:50:47;6.60;;;1.60;;
32200;SDS011;18701;45.588;5.288;2023-03-20T06:53:13;7.85;;;1.00;;
32200;SDS011;18701;45.588;5.288;2023-03-20T06:55:39;4.82;;;1.40;;
32200;SDS011;18701;45.588;5.288;2023-03-20T06:58:05;3.17;;;1.50;;
32200;SDS011;18701;45.588;5.288;2023-03-20T07:00:30;5.57;;;1.80;;
32200;SDS011;18701;45.588;5.288;2023-03-20T07:02:57;4.03;;;1.50;;
32200;SDS011;18701;45.588;5.288;2023-03-20T07:05:22;2.95;;;1.42;;
32200;SDS011;18701;45.588;5.288;2023-03-20T07:07:48;5.43;;;1.60;;
32200;SDS011;18701;45.588;5.288;2023-03-20T07:10:13;3.97;;;1.88;;
32200;SDS011;18701;45.588;5.288;2023-03-20T07:12:39;4.32;;;2.13;;
32200;SDS011;18701;45.588;5.288;2023-03-20T07:15:05;5.05;;;1.80;;
32200;SDS011;18701;45.588;5.288;2023-03-20T07:17:31;6.60;;;2.00;;
32200;SDS011;18701;45.588;5.288;2023-03-20T07:19:57;5.13;;;1.90;;
32200;SDS011;18701;45.588;5.288;2023-03-20T07:22:23;4.38;;;1.67;;
32200;SDS011;18701;45.588;5.288;2023-03-20T07:24:50;4.72;;;2.63;;
32200;SDS011;18701;45.588;5.288;2023-03-20T07:27:16;5.35;;;1.95;;
32200;SDS011;18701;45.588;5.288;2023-03-20T07:29:42;10.00;;;2.38;;
32200;SDS011;18701;45.588;5.288;2023-03-20T07:32:09;7.10;;;2.42;;
32200;SDS011;18701;45.588;5.288;2023-03-20T07:34:35;5.97;;;2.63;;
32200;SDS011;18701;45.588;5.288;2023-03-20T07:37:01;7.70;;;2.17;;
32200;SDS011;18701;45.588;5.288;2023-03-20T07:39:27;4.75;;;2.25;;
32200;SDS011;18701;45.588;5.288;2023-03-20T07:41:53;6.78;;;2.60;;
32200;SDS011;18701;45.588;5.288;2023-03-20T07:44:18;3.47;;;2.53;;
32200;SDS011;18701;45.588;5.288;2023-03-20T07:46:44;6.22;;;2.67;;
32200;SDS011;18701;45.588;5.288;2023-03-20T07:49:13;7.03;;;2.53;;
32200;SDS011;18701;45.588;5.288;2023-03-20T07:51:42;4.28;;;1.92;;
32200;SDS011;18701;45.588;5.288;2023-03-20T07:54:10;4.72;;;2.17;;
32200;SDS011;18701;45.588;5.288;2023-03-20T07:56:36;6.18;;;3.22;;
32200;SDS011;18701;45.588;5.288;2023-03-20T07:59:02;8.55;;;2.83;;
32200;SDS011;18701;45.588;5.288;2023-03-20T08:01:28;3.28;;;2.25;;
32200;SDS011;18701;45.588;5.288;2023-03-20T08:03:53;4.07;;;2.10;;
32200;SDS011;18701;45.588;5.288;2023-03-20T08:06:19;4.15;;;2.15;;
32200;SDS011;18701;45.588;5.288;2023-03-20T08:08:45;6.75;;;3.00;;
32200;SDS011;18701;45.588;5.288;2023-03-20T08:11:10;3.28;;;2.05;;
32200;SDS011;18701;45.588;5.288;2023-03-20T08:13:36;8.30;;;2.42;;
32200;SDS011;18701;45.588;5.288;2023-03-20T08:16:02;4.35;;;2.00;;
32200;SDS011;18701;45.588;5.288;2023-03-20T08:18:28;3.72;;;2.10;;
32200;SDS011;18701;45.588;5.288;2023-03-20T08:20:54;6.43;;;3.17;;
32200;SDS011;18701;45.588;5.288;2023-03-20T08:23:20;4.45;;;2.20;;
32200;SDS011;18701;45.588;5.288;2023-03-20T08:25:49;2.88;;;2.15;;
32200;SDS011;18701;45.588;5.288;2023-03-20T08:28:16;2.97;;;1.77;;
32200;SDS011;18701;45.588;5.288;2023-03-20T08:30:42;3.58;;;1.95;;
32200;SDS011;18701;45.588;5.288;2023-03-20T08:33:08;2.88;;;1.70;;
32200;SDS011;18701;45.588;5.288;2023-03-20T08:35:34;3.10;;;1.77;;
32200;SDS011;18701;45.588;5.288;2023-03-20T08:38:00;5.07;;;2.67;;
32200;SDS011;18701;45.588;5.288;2023-03-20T08:40:26;3.22;;;2.33;;
32200;SDS011;18701;45.588;5.288;2023-03-20T08:42:51;5.88;;;2.40;;
32200;SDS011;18701;45.588;5.288;2023-03-20T08:45:17;5.57;;;1.90;;
32200;SDS011;18701;45.588;5.288;2023-03-20T08:47:45;6.18;;;2.20;;
32200;SDS011;18701;45.588;5.288;2023-03-20T08:50:12;8.90;;;2.75;;
32200;SDS011;18701;45.588;5.288;2023-03-20T08:52:38;7.15;;;1.95;;
32200;SDS011;18701;45.588;5.288;2023-03-20T08:55:08;7.13;;;1.98;;
32200;SDS011;18701;45.588;5.288;2023-03-20T08:57:35;4.20;;;1.77;;
32200;SDS011;18701;45.588;5.288;2023-03-20T09:00:02;3.60;;;1.90;;
32200;SDS011;18701;45.588;5.288;2023-03-20T09:02:30;3.63;;;2.15;;
32200;SDS011;18701;45.588;5.288;2023-03-20T09:04:55;6.53;;;2.88;;
32200;SDS011;18701;45.588;5.288;2023-03-20T09:07:21;6.80;;;3.08;;
32200;SDS011;18701;45.588;5.288;2023-03-20T09:09:47;5.00;;;2.20;;
32200;SDS011;18701;45.588;5.288;2023-03-20T09:12:12;4.60;;;2.30;;
32200;SDS011;18701;45.588;5.288;2023-03-20T09:14:38;5.45;;;2.03;;
32200;SDS011;18701;45.588;5.288;2023-03-20T09:17:04;3.63;;;1.65;;
32200;SDS011;18701;45.588;5.288;2023-03-20T09:19:29;3.38;;;2.20;;
32200;SDS011;18701;45.588;5.288;2023-03-20T09:21:55;2.03;;;1.40;;
32200;SDS011;18701;45.588;5.288;2023-03-20T09:24:21;3.70;;;1.83;;
32200;SDS011;18701;45.588;5.288;2023-03-20T09:26:47;4.35;;;1.50;;
32200;SDS011;18701;45.588;5.288;2023-03-20T09:29:13;5.57;;;1.63;;
32200;SDS011;18701;45.588;5.288;2023-03-20T09:31:39;4.53;;;1.45;;
32200;SDS011;18701;45.588;5.288;2023-03-20T09:34:05;3.50;;;1.75;;
32200;SDS011;18701;45.588;5.288;2023-03-20T09:36:31;4.15;;;1.35;;
32200;SDS011;18701;45.588;5.288;2023-03-20T09:38:57;4.93;;;2.00;;
32200;SDS011;18701;45.588;5.288;2023-03-20T09:41:23;6.70;;;2.45;;
32200;SDS011;18701;45.588;5.288;2023-03-20T09:44:08;3.55;;;2.15;;
32200;SDS011;18701;45.588;5.288;2023-03-20T09:46:59;1.90;;;1.42;;
32200;SDS011;18701;45.588;5.288;2023-03-20T09:52:38;6.20;;;2.00;;
32200;SDS011;18701;45.588;5.288;2023-03-20T09:55:11;4.40;;;1.73;;
32200;SDS011;18701;45.588;5.288;2023-03-20T09:57:44;3.35;;;2.08;;
32200;SDS011;18701;45.588;5.288;2023-03-20T10:00:14;4.45;;;1.90;;
32200;SDS011;18701;45.588;5.288;2023-03-20T10:02:52;10.05;;;2.67;;
32200;SDS011;18701;45.588;5.288;2023-03-20T10:07:53;2.60;;;1.20;;
32200;SDS011;18701;45.588;5.288;2023-03-20T10:10:22;3.15;;;0.93;;
32200;SDS011;18701;45.588;5.288;2023-03-20T10:15:42;8.73;;;5.30;;
32200;SDS011;18701;45.588;5.288;2023-03-20T10:18:17;7.68;;;2.92;;
32200;SDS011;18701;45.588;5.288;2023-03-20T10:20:58;5.20;;;2.70;;
32200;SDS011;18701;45.588;5.288;2023-03-20T10:26:23;3.65;;;1.90;;
32200;SDS011;18701;45.588;5.288;2023-03-20T10:28:53;7.45;;;3.15;;
32200;SDS011;18701;45.588;5.288;2023-03-20T10:42:16;1.65;;;0.98;;
32200;SDS011;18701;45.588;5.288;2023-03-20T10:44:49;2.08;;;1.10;;
32200;SDS011;18701;45.588;5.288;2023-03-20T10:47:39;2.45;;;0.90;;
32200;SDS011;18701;45.588;5.288;2023-03-20T10:50:10;1.50;;;1.00;;
32200;SDS011;18701;45.588;5.288;2023-03-20T10:52:41;2.53;;;1.05;;
32200;SDS011;18701;45.588;5.288;2023-03-20T10:55:15;10.18;;;1.35;;
32200;SDS011;18701;45.588;5.288;2023-03-20T10:57:53;6.13;;;2.28;;
32200;SDS011;18701;45.588;5.288;2023-03-20T11:00:24;8.48;;;3.30;;
32200;SDS011;18701;45.588;5.288;2023-03-20T11:02:51;11.73;;;3.83;;
32200;SDS011;18701;45.588;5.288;2023-03-20T11:05:21;4.03;;;1.77;;
32200;SDS011;18701;45.588;5.288;2023-03-20T11:07:50;3.35;;;0.68;;
32200;SDS011;18701;45.588;5.288;2023-03-20T11:10:25;7.65;;;2.50;;
32200;SDS011;18701;45.588;5.288;2023-03-20T11:12:51;3.63;;;1.77;;
32200;SDS011;18701;45.588;5.288;2023-03-20T11:17:54;4.55;;;1.63;;
32200;SDS011;18701;45.588;5.288;2023-03-20T11:20:22;2.65;;;1.13;;
32200;SDS011;18701;45.588;5.288;2023-03-20T11:22:48;4.05;;;0.70;;
32200;SDS011;18701;45.588;5.288;2023-03-20T11:25:36;2.08;;;0.90;;
32200;SDS011;18701;45.588;5.288;2023-03-20T11:30:47;1.50;;;1.00;;
32200;SDS011;18701;45.588;5.288;2023-03-20T11:33:15;1.48;;;0.68;;
32200;SDS011;18701;45.588;5.288;2023-03-20T11:35:45;1.67;;;0.85;;
32200;SDS011;18701;45.588;5.288;2023-03-20T11:38:13;1.58;;;0.60;;
32200;SDS011;18701;45.588;5.288;2023-03-20T11:40:40;4.22;;;0.73;;
32200;SDS011;18701;45.588;5.288;2023-03-20T11:43:10;1.25;;;0.80;;
32200;SDS011;18701;45.588;5.288;2023-03-20T11:45:38;4.07;;;0.98;;
32200;SDS011;18701;45.588;5.288;2023-03-20T11:48:07;2.80;;;1.70;;
32200;SDS011;18701;45.588;5.288;2023-03-20T11:50:42;1.17;;;0.68;;
32200;SDS011;18701;45.588;5.288;2023-03-20T11:53:31;0.95;;;0.57;;
32200;SDS011;18701;45.588;5.288;2023-03-20T11:56:02;1.83;;;0.50;;
32200;SDS011;18701;45.588;5.288;2023-03-20T11:58:32;1.75;;;0.70;;
32200;SDS011;18701;45.588;5.288;2023-03-20T12:01:00;1.08;;;0.40;;
32200;SDS011;18701;45.588;5.288;2023-03-20T12:03:40;1.10;;;0.30;;
32200;SDS011;18701;45.588;5.288;2023-03-20T12:06:07;1.88;;;0.52;;
32200;SDS011;18701;45.588;5.288;2023-03-20T12:08:38;1.08;;;0.57;;
32200;SDS011;18701;45.588;5.288;2023-03-20T12:13:46;1.73;;;0.45;;
32200;SDS011;18701;45.588;5.288;2023-03-20T12:16:16;0.90;;;0.28;;
32200;SDS011;18701;45.588;5.288;2023-03-20T12:18:46;1.83;;;0.60;;
32200;SDS011;18701;45.588;5.288;2023-03-20T12:21:22;0.90;;;0.25;;
32200;SDS011;18701;45.588;5.288;2023-03-20T12:24:25;3.33;;;0.50;;
32200;SDS011;18701;45.588;5.288;2023-03-20T12:29:48;2.30;;;0.50;;
32200;SDS011;18701;45.588;5.288;2023-03-20T12:32:22;3.22;;;0.50;;
32200;SDS011;18701;45.588;5.288;2023-03-20T12:35:04;2.92;;;0.43;;
32200;SDS011;18701;45.588;5.288;2023-03-20T12:37:36;1.58;;;0.40;;
32200;SDS011;18701;45.588;5.288;2023-03-20T12:40:02;1.40;;;0.40;;
32200;SDS011;18701;45.588;5.288;2023-03-20T12:45:19;1.48;;;0.50;;
32200;SDS011;18701;45.588;5.288;2023-03-20T12:47:51;2.80;;;0.30;;
32200;SDS011;18701;45.588;5.288;2023-03-20T12:50:35;1.45;;;0.30;;
32200;SDS011;18701;45.588;5.288;2023-03-20T13:04:52;2.30;;;0.68;;
32200;SDS011;18701;45.588;5.288;2023-03-20T13:10:21;1.42;;;0.40;;
32200;SDS011;18701;45.588;5.288;2023-03-20T13:12:55;2.97;;;0.32;;
32200;SDS011;18701;45.588;5.288;2023-03-20T13:20:55;1.60;;;0.50;;
32200;SDS011;18701;45.588;5.288;2023-03-20T13:31:05;3.97;;;0.30;;
32200;SDS011;18701;45.588;5.288;2023-03-20T13:33:42;1.35;;;0.38;;
32200;SDS011;18701;45.588;5.288;2023-03-20T13:38:57;2.53;;;0.40;;
32200;SDS011;18701;45.588;5.288;2023-03-20T13:41:31;2.58;;;0.20;;
32200;SDS011;18701;45.588;5.288;2023-03-20T13:43:59;0.85;;;0.38;;
32200;SDS011;18701;45.588;5.288;2023-03-20T13:46:31;1.40;;;0.20;;
32200;SDS011;18701;45.588;5.288;2023-03-20T13:49:03;2.28;;;0.30;;
32200;SDS011;18701;45.588;5.288;2023-03-20T13:51:40;1.55;;;0.30;;
32200;SDS011;18701;45.588;5.288;2023-03-20T13:56:50;0.75;;;0.30;;
32200;SDS011;18701;45.588;5.288;2023-03-20T14:02:14;0.95;;;0.28;;
32200;SDS011;18701;45.588;5.288;2023-03-20T14:04:49;2.85;;;0.28;;
32200;SDS011;18701;45.588;5.288;2023-03-20T14:12:48;1.65;;;0.20;;
32200;SDS011;18701;45.588;5.288;2023-03-20T14:15:27;1.92;;;0.30;;
32200;SDS011;18701;45.588;5.288;2023-03-20T14:17:57;3.17;;;0.20;;
32200;SDS011;18701;45.588;5.288;2023-03-20T14:20:33;1.40;;;0.20;;
32200;SDS011;18701;45.588;5.288;2023-03-20T14:23:01;0.85;;;0.20;;
32200;SDS011;18701;45.588;5.288;2023-03-20T14:25:31;3.97;;;0.20;;
32200;SDS011;18701;45.588;5.288;2023-03-20T14:30:43;1.45;;;0.30;;
32200;SDS011;18701;45.588;5.288;2023-03-20T14:35:42;1.38;;;0.35;;
32200;SDS011;18701;45.588;5.288;2023-03-20T14:49:21;0.50;;;0.20;;
32200;SDS011;18701;45.588;5.288;2023-03-20T14:51:56;1.27;;;0.43;;
32200;SDS011;18701;45.588;5.288;2023-03-20T14:54:29;0.98;;;0.20;;
32200;SDS011;18701;45.588;5.288;2023-03-20T14:56:55;1.60;;;0.20;;
32200;SDS011;18701;45.588;5.288;2023-03-20T14:59:33;1.90;;;0.20;;
32200;SDS011;18701;45.588;5.288;2023-03-20T15:02:00;1.08;;;0.20;;
32200;SDS011;18701;45.588;5.288;2023-03-20T15:04:28;3.20;;;0.25;;
32200;SDS011;18701;45.588;5.288;2023-03-20T15:06:59;0.60;;;0.20;;
32200;SDS011;18701;45.588;5.288;2023-03-20T15:09:39;0.47;;;0.22;;
32200;SDS011;18701;45.588;5.288;2023-03-20T15:12:15;1.65;;;0.20;;
32200;SDS011;18701;45.588;5.288;2023-03-20T15:14:44;2.30;;;0.20;;
32200;SDS011;18701;45.588;5.288;2023-03-20T15:17:20;0.40;;;0.20;;
32200;SDS011;18701;45.588;5.288;2023-03-20T15:19:47;2.70;;;0.50;;
32200;SDS011;18701;45.588;5.288;2023-03-20T15:22:17;0.82;;;0.10;;
32200;SDS011;18701;45.588;5.288;2023-03-20T15:24:52;1.75;;;0.20;;
32200;SDS011;18701;45.588;5.288;2023-03-20T15:27:19;2.33;;;0.25;;
32200;SDS011;18701;45.588;5.288;2023-03-20T15:29:48;0.82;;;0.20;;
32200;SDS011;18701;45.588;5.288;2023-03-20T15:32:16;0.60;;;0.10;;
32200;SDS011;18701;45.588;5.288;2023-03-20T15:34:42;1.08;;;0.25;;
32200;SDS011;18701;45.588;5.288;2023-03-20T15:37:11;0.80;;;0.30;;
32200;SDS011;18701;45.588;5.288;2023-03-20T15:39:44;0.60;;;0.20;;
32200;SDS011;18701;45.588;5.288;2023-03-20T15:42:16;0.80;;;0.20;;
32200;SDS011;18701;45.588;5.288;2023-03-20T15:44:45;2.10;;;0.20;;
32200;SDS011;18701;45.588;5.288;2023-03-20T15:47:16;0.85;;;0.10;;
32200;SDS011;18701;45.588;5.288;2023-03-20T15:55:05;0.73;;;0.20;;
32200;SDS011;18701;45.588;5.288;2023-03-20T15:57:36;1.63;;;0.30;;
32200;SDS011;18701;45.588;5.288;2023-03-20T16:00:09;0.43;;;0.13;;
32200;SDS011;18701;45.588;5.288;2023-03-20T16:02:40;3.53;;;0.28;;
32200;SDS011;18701;45.588;5.288;2023-03-20T16:05:11;1.55;;;0.22;;
32200;SDS011;18701;45.588;5.288;2023-03-20T16:07:38;0.35;;;0.28;;
32200;SDS011;18701;45.588;5.288;2023-03-20T16:10:21;1.60;;;0.30;;
32200;SDS011;18701;45.588;5.288;2023-03-20T16:12:54;0.60;;;0.10;;
32200;SDS011;18701;45.588;5.288;2023-03-20T16:15:24;1.25;;;0.20;;
32200;SDS011;18701;45.588;5.288;2023-03-20T16:17:55;1.60;;;0.20;;
32200;SDS011;18701;45.588;5.288;2023-03-20T16:20:23;0.60;;;0.10;;
32200;SDS011;18701;45.588;5.288;2023-03-20T16:22:53;1.92;;;0.20;;
32200;SDS011;18701;45.588;5.288;2023-03-20T16:25:23;0.90;;;0.20;;
32200;SDS011;18701;45.588;5.288;2023-03-20T16:27:49;0.30;;;0.13;;
32200;SDS011;18701;45.588;5.288;2023-03-20T16:30:28;3.00;;;0.30;;
32200;SDS011;18701;45.588;5.288;2023-03-20T16:32:59;0.20;;;0.10;;
32200;SDS011;18701;45.588;5.288;2023-03-20T16:35:38;3.05;;;0.20;;
32200;SDS011;18701;45.588;5.288;2023-03-20T16:38:40;2.40;;;0.30;;
32200;SDS011;18701;45.588;5.288;2023-03-20T16:43:58;1.30;;;0.25;;
32200;SDS011;18701;45.588;5.288;2023-03-20T16:46:25;1.05;;;0.40;;
32200;SDS011;18701;45.588;5.288;2023-03-20T16:48:55;4.80;;;0.43;;
32200;SDS011;18701;45.588;5.288;2023-03-20T16:51:22;1.05;;;0.20;;
32200;SDS011;18701;45.588;5.288;2023-03-20T16:53:55;0.80;;;0.30;;
32200;SDS011;18701;45.588;5.288;2023-03-20T16:59:05;2.35;;;0.20;;
32200;SDS011;18701;45.588;5.288;2023-03-20T17:01:32;2.22;;;0.45;;
32200;SDS011;18701;45.588;5.288;2023-03-20T17:04:10;1.60;;;0.50;;
32200;SDS011;18701;45.588;5.288;2023-03-20T17:06:54;1.73;;;0.70;;
32200;SDS011;18701;45.588;5.288;2023-03-20T17:12:29;3.75;;;1.83;;
32200;SDS011;18701;45.588;5.288;2023-03-20T17:14:47;5.18;;;1.98;;
32200;SDS011;18701;45.588;5.288;2023-03-20T17:17:13;7.03;;;3.88;;
32200;SDS011;18701;45.588;5.288;2023-03-20T17:19:40;7.53;;;4.88;;
32200;SDS011;18701;45.588;5.288;2023-03-20T17:22:12;2.83;;;1.55;;
32200;SDS011;18701;45.588;5.288;2023-03-20T17:27:08;2.35;;;1.25;;
32200;SDS011;18701;45.588;5.288;2023-03-20T17:29:36;0.75;;;0.28;;
32200;SDS011;18701;45.588;5.288;2023-03-20T17:32:07;4.13;;;0.50;;
32200;SDS011;18701;45.588;5.288;2023-03-20T17:34:34;2.80;;;0.40;;
32200;SDS011;18701;45.588;5.288;2023-03-20T17:36:59;2.03;;;0.70;;
32200;SDS011;18701;45.588;5.288;2023-03-20T17:39:27;1.65;;;0.20;;